createdAt,value
2023-05-14T00:01:08.232Z,99797.80
2023-05-14T00:04:11.171Z,99796.27
2023-05-14T00:07:14.019Z,99794.11
2023-05-14T00:10:19.185Z,99797.14
2023-05-14T00:13:21.890Z,99792.11
2023-05-14T00:16:24.629Z,99790.70
2023-05-14T00:19:27.873Z,99792.33
2023-05-14T00:22:30.602Z,99789.33
2023-05-14T00:25:33.345Z,99788.68
2023-05-14T00:28:36.212Z,99793.39
2023-05-14T00:31:39.013Z,99791.81
2023-05-14T00:34:42.053Z,99790.74
2023-05-14T00:37:44.882Z,99792.95
2023-05-14T00:40:51.464Z,99788.38
2023-05-14T00:43:54.305Z,99792.15
2023-05-14T00:46:57.362Z,99801.02
2023-05-14T00:50:01.188Z,99795.83
2023-05-14T00:53:10.058Z,99795.51
2023-05-14T00:56:15.161Z,99793.21
2023-05-14T00:59:17.916Z,99789.11
2023-05-14T01:02:20.823Z,99790.48
2023-05-14T01:05:28.643Z,99787.71
2023-05-14T01:09:01.860Z,99788.31
2023-05-14T01:12:27.082Z,99785.91
2023-05-14T01:15:36.172Z,99776.12
2023-05-14T01:18:41.549Z,99775.41
2023-05-14T01:21:44.370Z,99775.56
2023-05-14T01:24:47.360Z,99771.75
2023-05-14T01:28:03.964Z,99773.94
2023-05-14T01:31:25.193Z,99776.08
2023-05-14T01:34:30.102Z,99770.16
2023-05-14T01:37:33.258Z,99773.71
2023-05-14T01:40:37.370Z,99773.12
2023-05-14T01:43:41.161Z,99766.22
2023-05-14T01:46:44.068Z,99756.16
2023-05-14T01:49:46.797Z,99747.53
2023-05-14T01:52:51.288Z,99748.58
2023-05-14T01:55:54.124Z,99753.27
2023-05-14T01:58:57.118Z,99759.40
2023-05-14T02:02:00.405Z,99759.89
2023-05-14T02:05:04.909Z,99756.21
2023-05-14T02:08:09.656Z,99748.83
2023-05-14T02:11:12.622Z,99748.90
2023-05-14T02:14:15.785Z,99743.03
2023-05-14T02:17:18.964Z,99739.73
2023-05-14T02:20:21.817Z,99739.06
2023-05-14T02:23:34.048Z,99741.75
2023-05-14T02:26:41.189Z,99734.59
2023-05-14T02:29:44.766Z,99733.27
2023-05-14T02:32:47.528Z,99734.42
2023-05-14T02:35:51.008Z,99735.58
2023-05-14T02:38:53.953Z,99733.17
2023-05-14T02:41:58.143Z,99728.30
2023-05-14T02:45:01.063Z,99727.54
2023-05-14T02:48:03.984Z,99721.98
2023-05-14T02:51:07.902Z,99719.58
2023-05-14T02:54:10.784Z,99714.86
2023-05-14T02:57:13.714Z,99715.73
2023-05-14T03:00:16.893Z,99711.37
2023-05-14T03:03:20.562Z,99713.55
2023-05-14T03:06:23.721Z,99716.67
2023-05-14T03:09:26.570Z,99719.17
2023-05-14T03:12:29.320Z,99716.11
2023-05-14T03:15:32.031Z,99712.22
2023-05-14T03:18:36.674Z,99712.07
2023-05-14T03:21:39.806Z,99711.62
2023-05-14T03:24:42.655Z,99711.02
2023-05-14T03:27:46.023Z,99709.11
2023-05-14T03:30:49.146Z,99704.00
2023-05-14T03:33:52.262Z,99705.01
2023-05-14T03:36:55.189Z,99707.31
2023-05-14T03:39:57.938Z,99704.58
2023-05-14T03:43:00.994Z,99701.60
2023-05-14T03:46:03.848Z,99702.40
2023-05-14T03:49:07.283Z,99705.61
2023-05-14T03:52:10.830Z,99704.76
2023-05-14T03:55:13.628Z,99697.19
2023-05-14T03:58:17.453Z,99697.77
2023-05-14T04:01:20.292Z,99696.55
2023-05-14T04:04:23.164Z,99700.25
2023-05-14T04:07:26.054Z,99698.68
2023-05-14T04:10:29.892Z,99701.38
2023-05-14T04:13:32.837Z,99698.70
2023-05-14T04:16:35.883Z,99700.92
2023-05-14T04:19:39.376Z,99696.15
2023-05-14T04:22:42.218Z,99700.02
2023-05-14T04:25:45.059Z,99697.04
2023-05-14T04:28:47.818Z,99698.16
2023-05-14T04:31:50.661Z,99696.77
2023-05-14T04:34:53.403Z,99699.16
2023-05-14T04:37:56.860Z,99701.23
2023-05-14T04:40:59.781Z,99700.15
2023-05-14T04:44:03.554Z,99694.16
2023-05-14T04:47:07.113Z,99694.63
2023-05-14T04:50:09.948Z,99693.57
2023-05-14T04:53:12.725Z,99693.33
2023-05-14T04:56:15.484Z,99698.35
2023-05-14T04:59:18.262Z,99694.40
2023-05-14T05:02:21.155Z,99689.91
2023-05-14T05:05:24.309Z,99689.40
2023-05-14T05:08:27.006Z,99683.80
2023-05-14T05:11:29.930Z,99685.02
2023-05-14T05:14:32.798Z,99685.61
2023-05-14T05:17:35.900Z,99688.16
2023-05-14T05:20:38.779Z,99683.10
2023-05-14T05:23:41.529Z,99679.81
2023-05-14T05:26:44.315Z,99678.42
2023-05-14T05:29:47.007Z,99682.23
2023-05-14T05:32:49.868Z,99678.20
2023-05-14T05:35:52.827Z,99682.31
2023-05-14T05:38:56.203Z,99678.73
2023-05-14T05:41:58.926Z,99678.83
2023-05-14T05:45:01.643Z,99670.64
2023-05-14T05:48:04.989Z,99668.71
2023-05-14T05:51:07.936Z,99669.23
2023-05-14T05:54:10.682Z,99667.50
2023-05-14T05:57:13.761Z,99665.86
2023-05-14T06:00:17.123Z,99662.55
2023-05-14T06:03:20.001Z,99659.06
2023-05-14T06:06:22.912Z,99659.96
2023-05-14T06:09:25.685Z,99665.74
2023-05-14T06:12:28.450Z,99665.74
2023-05-14T06:15:31.394Z,99669.20
2023-05-14T06:18:34.157Z,99669.38
2023-05-14T06:21:37.041Z,99670.63
2023-05-14T06:24:39.798Z,99670.52
2023-05-14T06:27:42.802Z,99666.45
2023-05-14T06:30:45.687Z,99670.57
2023-05-14T06:33:48.408Z,99668.71
2023-05-14T06:36:51.206Z,99663.81
2023-05-14T06:39:54.737Z,99669.64
2023-05-14T06:42:59.251Z,99662.70
2023-05-14T06:46:02.106Z,99661.23
2023-05-14T06:49:05.438Z,99656.30
2023-05-14T06:52:08.298Z,99653.83
2023-05-14T06:55:11.103Z,99648.75
2023-05-14T06:58:14.231Z,99645.30
2023-05-14T07:01:17.616Z,99646.71
2023-05-14T07:04:20.842Z,99647.42
2023-05-14T07:07:23.662Z,99647.80
2023-05-14T07:10:26.567Z,99640.52
2023-05-14T07:13:29.927Z,99646.29
2023-05-14T07:16:32.741Z,99643.71
2023-05-14T07:19:35.593Z,99649.74
2023-05-14T07:22:38.407Z,99645.89
2023-05-14T07:25:41.116Z,99637.08
2023-05-14T07:28:44.148Z,99630.98
2023-05-14T07:31:47.218Z,99639.08
2023-05-14T07:34:49.988Z,99630.47
2023-05-14T07:37:52.948Z,99621.59
2023-05-14T07:40:56.221Z,99621.96
2023-05-14T07:43:58.932Z,99616.89
2023-05-14T07:47:01.646Z,99613.81
2023-05-14T07:50:04.804Z,99617.52
2023-05-14T07:53:08.069Z,99617.10
2023-05-14T07:56:10.812Z,99612.50
2023-05-14T07:59:13.570Z,99609.55
2023-05-14T08:02:17.097Z,99608.00
2023-05-14T08:05:20.638Z,99603.59
2023-05-14T08:08:23.413Z,99600.53
2023-05-14T08:11:26.224Z,99604.42
2023-05-14T08:14:29.115Z,99600.95
2023-05-14T08:17:31.907Z,99605.86
2023-05-14T08:20:34.731Z,99602.52
2023-05-14T08:23:37.506Z,99601.80
2023-05-14T08:26:40.237Z,99601.02
2023-05-14T08:29:43.144Z,99601.33
2023-05-14T08:32:46.030Z,99605.66
2023-05-14T08:35:52.868Z,99602.12
2023-05-14T08:38:55.814Z,99607.05
2023-05-14T08:42:00.881Z,99600.45
2023-05-14T08:45:06.215Z,99590.61
2023-05-14T08:48:15.661Z,99582.75
2023-05-14T08:51:19.406Z,99586.74
2023-05-14T08:54:23.924Z,99572.02
2023-05-14T08:57:28.022Z,99571.06
2023-05-14T09:00:31.100Z,99570.02
2023-05-14T09:03:34.978Z,99561.08
2023-05-14T09:06:38.376Z,99567.23
2023-05-14T09:09:41.551Z,99567.75
2023-05-14T09:12:44.519Z,99568.29
2023-05-14T09:15:48.975Z,99566.02
2023-05-14T09:18:52.331Z,99560.65
2023-05-14T09:22:01.008Z,99562.48
2023-05-14T09:25:26.383Z,99562.66
2023-05-14T09:28:30.747Z,99561.91
2023-05-14T09:31:33.921Z,99560.36
2023-05-14T09:34:39.703Z,99553.72
2023-05-14T09:37:44.200Z,99552.20
2023-05-14T09:40:46.918Z,99550.35
2023-05-14T09:43:51.447Z,99542.40
2023-05-14T09:46:55.116Z,99549.79
2023-05-14T09:49:57.888Z,99542.82
2023-05-14T09:53:01.003Z,99531.98
2023-05-14T09:56:03.874Z,99528.79
2023-05-14T09:59:06.586Z,99527.11
2023-05-14T10:02:26.288Z,99511.93
2023-05-14T10:05:29.753Z,99505.30
2023-05-14T10:08:41.328Z,99508.90
2023-05-14T10:11:45.585Z,99498.88
2023-05-14T10:14:53.304Z,99488.19
2023-05-14T10:18:00.954Z,99485.19
2023-05-14T10:21:08.072Z,99485.59
2023-05-14T10:24:11.417Z,99480.02
2023-05-14T10:27:15.329Z,99470.55
2023-05-14T10:30:23.207Z,99470.03
2023-05-14T10:33:27.321Z,99468.79
2023-05-14T10:36:30.169Z,99454.87
2023-05-14T10:39:51.243Z,99450.41
2023-05-14T10:42:59.194Z,99444.89
2023-05-14T10:46:02.970Z,99450.73
2023-05-14T10:49:06.038Z,99446.84
2023-05-14T10:52:09.548Z,99447.13
2023-05-14T10:55:16.909Z,99439.15
2023-05-14T10:58:19.750Z,99427.07
2023-05-14T11:01:24.282Z,99428.88
2023-05-14T11:04:28.230Z,99424.64
2023-05-14T11:07:33.822Z,99415.03
2023-05-14T11:10:39.007Z,99418.50
2023-05-14T11:13:42.913Z,99421.54
2023-05-14T11:16:47.434Z,99413.14
2023-05-14T11:19:51.232Z,99411.60
2023-05-14T11:22:55.390Z,99410.53
2023-05-14T11:25:58.342Z,99407.04
2023-05-14T11:29:01.321Z,99404.13
2023-05-14T11:32:06.734Z,99411.52
2023-05-14T11:35:10.189Z,99410.55
2023-05-14T11:38:21.285Z,99410.92
2023-05-14T11:41:24.528Z,99397.59
2023-05-14T11:44:27.408Z,99402.79
2023-05-14T11:47:31.732Z,99399.30
2023-05-14T11:50:36.721Z,99396.63
2023-05-14T11:53:39.553Z,99399.30
2023-05-14T11:56:42.285Z,99401.27
2023-05-14T11:59:46.276Z,99394.08
2023-05-14T12:02:50.143Z,99389.39
2023-05-14T12:06:00.716Z,99382.51
2023-05-14T12:09:05.904Z,99382.05
2023-05-14T12:12:12.408Z,99386.95
2023-05-14T12:15:17.428Z,99385.92
2023-05-14T12:18:24.577Z,99383.66
2023-05-14T12:21:29.401Z,99382.28
2023-05-14T12:24:32.154Z,99378.39
2023-05-14T12:27:37.753Z,99373.46
2023-05-14T12:30:41.338Z,99369.14
2023-05-14T12:33:44.072Z,99362.13
2023-05-14T12:36:46.815Z,99353.50
2023-05-14T12:39:49.878Z,99347.55
2023-05-14T12:42:54.048Z,99350.59
2023-05-14T12:45:57.809Z,99337.98
2023-05-14T12:49:00.593Z,99340.98
2023-05-14T12:52:22.815Z,99336.06
2023-05-14T12:55:28.190Z,99331.29
2023-05-14T12:58:30.903Z,99328.42
2023-05-14T13:01:33.790Z,99326.05
2023-05-14T13:04:37.437Z,99328.09
2023-05-14T13:07:40.642Z,99321.59
2023-05-14T13:10:44.667Z,99313.79
2023-05-14T13:13:47.585Z,99309.26
2023-05-14T13:16:50.852Z,99313.84
2023-05-14T13:19:53.777Z,99315.22
2023-05-14T13:22:57.225Z,99312.41
2023-05-14T13:25:59.957Z,99305.38
2023-05-14T13:29:02.915Z,99299.04
2023-05-14T13:32:06.274Z,99292.83
2023-05-14T13:35:09.576Z,99292.84
2023-05-14T13:38:12.297Z,99285.92
2023-05-14T13:41:15.060Z,99277.67
2023-05-14T13:44:17.915Z,99272.98
2023-05-14T13:47:20.729Z,99276.87
2023-05-14T13:50:23.573Z,99273.92
2023-05-14T13:53:27.242Z,99273.52
2023-05-14T13:56:30.036Z,99266.53
2023-05-14T13:59:32.999Z,99262.10
2023-05-14T14:02:35.770Z,99256.58
2023-05-14T14:05:38.918Z,99253.27
2023-05-14T14:08:41.794Z,99250.08
2023-05-14T14:11:44.885Z,99253.30
2023-05-14T14:14:48.207Z,99251.86
2023-05-14T14:17:51.051Z,99250.60
2023-05-14T14:20:53.807Z,99253.66
2023-05-14T14:23:56.550Z,99244.63
2023-05-14T14:26:59.295Z,99248.63
2023-05-14T14:30:02.247Z,99245.66
2023-05-14T14:33:05.373Z,99240.91
2023-05-14T14:36:09.060Z,99241.58
2023-05-14T14:39:11.864Z,99244.02
2023-05-14T14:42:14.674Z,99239.15
2023-05-14T14:45:17.737Z,99240.35
2023-05-14T14:48:28.347Z,99238.84
2023-05-14T14:51:31.631Z,99227.55
2023-05-14T14:54:34.359Z,99223.96
2023-05-14T14:57:37.110Z,99221.41
2023-05-14T15:00:40.413Z,99217.99
2023-05-14T15:03:45.786Z,99224.15
2023-05-14T15:06:48.913Z,99219.05
2023-05-14T15:09:51.659Z,99213.75
2023-05-14T15:12:57.863Z,99210.32
2023-05-14T15:16:00.791Z,99210.20
2023-05-14T15:19:03.730Z,99204.69
2023-05-14T15:22:06.564Z,99202.15
2023-05-14T15:25:09.755Z,99196.23
2023-05-14T15:28:12.488Z,99195.56
2023-05-14T15:31:15.985Z,99200.88
2023-05-14T15:34:18.763Z,99200.38
2023-05-14T15:37:23.878Z,99192.94
2023-05-14T15:40:29.793Z,99188.78
2023-05-14T15:43:32.573Z,99190.41
2023-05-14T15:46:35.807Z,99189.32
2023-05-14T15:49:38.744Z,99189.33
2023-05-14T15:52:41.582Z,99187.41
2023-05-14T15:55:44.736Z,99176.08
2023-05-14T15:58:48.474Z,99173.30
2023-05-14T16:01:51.479Z,99168.67
2023-05-14T16:04:54.290Z,99160.81
2023-05-14T16:07:57.094Z,99161.09
2023-05-14T16:10:59.898Z,99152.64
2023-05-14T16:14:02.729Z,99146.87
2023-05-14T16:17:05.559Z,99141.33
2023-05-14T16:20:09.155Z,99137.22
2023-05-14T16:23:11.963Z,99131.48
2023-05-14T16:26:14.705Z,99130.66
2023-05-14T16:29:17.760Z,99124.77
2023-05-14T16:32:21.738Z,99122.85
2023-05-14T16:35:24.568Z,99125.00
2023-05-14T16:38:27.336Z,99120.79
2023-05-14T16:41:30.258Z,99118.79
2023-05-14T16:44:33.048Z,99124.90
2023-05-14T16:47:35.841Z,99125.95
2023-05-14T16:50:38.727Z,99124.09
2023-05-14T16:53:41.439Z,99120.70
2023-05-14T16:56:48.157Z,99118.77
2023-05-14T16:59:51.317Z,99124.95
2023-05-14T17:02:54.343Z,99120.37
2023-05-14T17:05:57.318Z,99117.02
2023-05-14T17:09:00.167Z,99113.92
2023-05-14T17:12:03.303Z,99117.46
2023-05-14T17:15:07.310Z,99117.12
2023-05-14T17:18:12.066Z,99115.71
2023-05-14T17:21:15.238Z,99111.64
2023-05-14T17:24:18.333Z,99111.98
2023-05-14T17:27:21.470Z,99111.00
2023-05-14T17:30:24.992Z,99111.86
2023-05-14T17:33:28.530Z,99110.26
2023-05-14T17:36:32.391Z,99107.02
2023-05-14T17:39:35.924Z,99105.11
2023-05-14T17:42:39.107Z,99101.73
2023-05-14T17:45:53.031Z,99099.09
2023-05-14T17:48:58.396Z,99098.15
2023-05-14T17:52:02.182Z,99099.90
2023-05-14T17:55:05.587Z,99098.88
2023-05-14T17:58:08.508Z,99102.09
2023-05-14T18:01:11.667Z,99104.53
2023-05-14T18:04:15.113Z,99104.77
2023-05-14T18:07:19.228Z,99102.48
2023-05-14T18:10:22.025Z,99102.30
2023-05-14T18:13:24.870Z,99101.32
2023-05-14T18:16:28.415Z,99107.51
2023-05-14T18:19:31.344Z,99104.98
2023-05-14T18:22:34.099Z,99103.98
2023-05-14T18:25:36.894Z,99103.31
2023-05-14T18:28:39.967Z,99100.73
2023-05-14T18:31:42.670Z,99102.13
2023-05-14T18:34:45.370Z,99100.47
2023-05-14T18:37:48.142Z,99101.61
2023-05-14T18:40:51.100Z,99102.57
2023-05-14T18:43:53.830Z,99099.79
2023-05-14T18:46:56.673Z,99099.58
2023-05-14T18:50:02.107Z,99093.96
2023-05-14T18:53:05.435Z,99092.19
2023-05-14T18:56:09.669Z,99096.20
2023-05-14T18:59:12.446Z,99093.65
2023-05-14T19:02:15.380Z,99097.34
2023-05-14T19:05:18.260Z,99099.39
2023-05-14T19:08:21.157Z,99094.75
2023-05-14T19:11:24.075Z,99095.15
2023-05-14T19:14:26.829Z,99093.11
2023-05-14T19:17:32.769Z,99090.88
2023-05-14T19:20:35.794Z,99088.80
2023-05-14T19:23:39.443Z,99087.66
2023-05-14T19:26:42.238Z,99086.41
2023-05-14T19:29:45.112Z,99085.85
2023-05-14T19:32:48.460Z,99080.20
2023-05-14T19:35:52.101Z,99080.37
2023-05-14T19:38:54.935Z,99078.45
2023-05-14T19:41:57.688Z,99076.40
2023-05-14T19:45:00.575Z,99073.56
2023-05-14T19:48:06.166Z,99069.85
2023-05-14T19:51:09.119Z,99066.61
2023-05-14T19:54:11.925Z,99062.74
2023-05-14T19:57:14.821Z,99055.79
2023-05-14T20:00:17.865Z,99057.30
2023-05-14T20:03:31.194Z,99054.80
2023-05-14T20:06:34.317Z,99052.48
2023-05-14T20:09:37.088Z,99049.41
2023-05-14T20:12:40.020Z,99041.23
2023-05-14T20:15:43.373Z,99039.16
2023-05-14T20:18:46.336Z,99029.41
2023-05-14T20:21:49.081Z,99027.30
2023-05-14T20:24:52.883Z,99019.84
2023-05-14T20:27:55.723Z,99016.94
2023-05-14T20:31:03.988Z,99013.13
2023-05-14T20:34:07.060Z,99011.17
2023-05-14T20:37:10.175Z,99008.54
2023-05-14T20:40:13.071Z,99001.65
2023-05-14T20:43:16.119Z,98996.98
2023-05-14T20:46:19.088Z,98995.33
2023-05-14T20:49:21.948Z,98995.61
2023-05-14T20:52:25.097Z,98992.55
2023-05-14T20:55:28.202Z,98988.46
2023-05-14T20:58:31.050Z,98989.88
2023-05-14T21:01:33.835Z,98988.27
2023-05-14T21:04:36.646Z,98987.91
2023-05-14T21:07:39.735Z,98984.17
2023-05-14T21:10:42.488Z,98978.07
2023-05-14T21:13:45.259Z,98975.27
2023-05-14T21:16:48.620Z,98965.55
2023-05-14T21:19:51.731Z,98967.81
2023-05-14T21:22:54.496Z,98962.89
2023-05-14T21:25:57.927Z,98957.29
2023-05-14T21:29:00.929Z,98956.77
2023-05-14T21:32:04.088Z,98948.95
2023-05-14T21:35:07.493Z,98949.75
2023-05-14T21:38:10.339Z,98945.44
2023-05-14T21:41:13.323Z,98945.69
2023-05-14T21:44:16.099Z,98940.02
2023-05-14T21:47:19.880Z,98937.16
2023-05-14T21:50:22.617Z,98935.38
2023-05-14T21:53:25.344Z,98930.05
2023-05-14T21:56:28.153Z,98922.77
2023-05-14T21:59:30.873Z,98919.23
2023-05-14T22:02:33.614Z,98916.57
2023-05-14T22:05:36.522Z,98910.66
2023-05-14T22:08:39.218Z,98904.04
2023-05-14T22:11:41.933Z,98899.86
2023-05-14T22:14:44.808Z,98900.63
2023-05-14T22:17:48.202Z,98897.90
2023-05-14T22:20:51.296Z,98896.37
2023-05-14T22:23:54.132Z,98889.11
2023-05-14T22:27:22.206Z,98884.59
2023-05-14T22:30:25.114Z,98878.54
2023-05-14T22:33:27.865Z,98880.09
2023-05-14T22:36:30.645Z,98872.80
2023-05-14T22:39:33.468Z,98870.12
2023-05-14T22:42:36.200Z,98880.12
2023-05-14T22:45:38.923Z,98886.33
2023-05-14T22:48:42.222Z,98888.35
2023-05-14T22:51:44.979Z,98885.30
2023-05-14T22:54:51.029Z,98886.20
2023-05-14T22:57:53.954Z,98883.48
2023-05-14T23:00:57.278Z,98883.98
2023-05-14T23:04:00.238Z,98879.06
2023-05-14T23:07:03.157Z,98874.70
2023-05-14T23:10:06.732Z,98868.00
2023-05-14T23:13:09.504Z,98862.52
2023-05-14T23:16:12.267Z,98857.03
2023-05-14T23:19:15.207Z,98853.88
2023-05-14T23:22:18.547Z,98852.00
2023-05-14T23:25:21.254Z,98844.91
2023-05-14T23:28:24.153Z,98838.81
2023-05-14T23:31:26.907Z,98841.23
2023-05-14T23:34:29.624Z,98839.37
2023-05-14T23:37:33.703Z,98846.42
2023-05-14T23:40:36.582Z,98846.83
2023-05-14T23:43:39.402Z,98841.81
2023-05-14T23:46:42.169Z,98834.61
2023-05-14T23:49:44.958Z,98822.45
2023-05-14T23:52:47.694Z,98820.64
2023-05-14T23:55:50.754Z,98824.96
2023-05-14T23:58:53.828Z,98831.38
